Time;durP1;ratioP1;P1;durP2;ratioP2;P2;SDS_P1;SDS_P2;PMS_P1;PMS_P2;Temp;Humidity;BMP_temperature;BMP_pressure;BME280_temperature;BME280_humidity;BME280_pressure;Samples;Min_cycle;Max_cycle;Signal;HPM_P1;HPM_P2
2024/02/16 00:03:50;;;;;;;7.03;5.15;;;;;;;;;;10357843;28;20375;-65
2024/02/16 00:08:51;;;;;;;8.93;5.30;;;;;;;;;;10364036;28;20424;-65
2024/02/16 00:13:52;;;;;;;9.98;5.50;;;;;;;;;;10364178;28;20543;-65
2024/02/16 00:18:52;;;;;;;8.38;5.35;;;;;;;;;;10364546;28;20366;-67
2024/02/16 00:23:53;;;;;;;10.00;5.15;;;;;;;;;;10351735;28;20041;-64
2024/02/16 00:28:53;;;;;;;6.85;4.82;;;;;;;;;;10361962;28;20026;-65
2024/02/16 00:33:54;;;;;;;8.27;5.40;;;;;;;;;;10362924;28;20038;-64
2024/02/16 00:38:54;;;;;;;7.50;4.70;;;;;;;;;;10362803;28;20045;-65
2024/02/16 00:43:56;;;;;;;9.80;5.22;;;;;;;;;;10360965;28;20401;-65
2024/02/16 00:48:57;;;;;;;8.55;5.43;;;;;;;;;;10359263;28;20522;-65
2024/02/16 00:53:58;;;;;;;10.27;4.93;;;;;;;;;;10361589;28;20026;-66
2024/02/16 00:58:58;;;;;;;6.70;4.60;;;;;;;;;;10356191;28;20026;-66
2024/02/16 01:03:59;;;;;;;10.38;5.40;;;;;;;;;;10361819;28;20034;-67
2024/02/16 01:09:00;;;;;;;7.25;5.05;;;;;;;;;;10357337;28;20026;-67
2024/02/16 01:14:00;;;;;;;7.03;5.05;;;;;;;;;;10360396;28;20038;-67
2024/02/16 01:19:01;;;;;;;6.07;4.82;;;;;;;;;;10356221;28;20038;-65
2024/02/16 01:24:01;;;;;;;5.90;5.10;;;;;;;;;;10356001;28;20038;-65
2024/02/16 01:29:02;;;;;;;10.32;4.57;;;;;;;;;;10364969;28;20073;-66
2024/02/16 01:34:03;;;;;;;6.78;4.95;;;;;;;;;;10369333;28;20064;-65
2024/02/16 01:39:04;;;;;;;9.38;5.45;;;;;;;;;;10367132;28;20409;-64
2024/02/16 01:44:05;;;;;;;7.90;5.45;;;;;;;;;;10367580;28;20038;-64
2024/02/16 01:49:07;;;;;;;7.95;4.80;;;;;;;;;;10369213;28;20025;-64
2024/02/16 01:54:08;;;;;;;6.30;4.45;;;;;;;;;;10363536;28;20366;-64
2024/02/16 01:59:09;;;;;;;7.03;4.72;;;;;;;;;;10361055;28;20113;-64
2024/02/16 02:04:10;;;;;;;8.00;5.00;;;;;;;;;;10350894;28;20026;-64
2024/02/16 02:09:10;;;;;;;9.93;5.20;;;;;;;;;;10366829;28;20359;-65
2024/02/16 02:14:11;;;;;;;8.43;5.38;;;;;;;;;;10361797;28;20041;-66
2024/02/16 02:19:12;;;;;;;7.35;5.30;;;;;;;;;;10367735;28;20045;-65
2024/02/16 02:24:12;;;;;;;9.05;5.40;;;;;;;;;;10368648;28;20073;-65
2024/02/16 02:29:13;;;;;;;6.30;5.05;;;;;;;;;;10369991;28;20048;-65
2024/02/16 02:34:14;;;;;;;7.75;5.28;;;;;;;;;;10370665;28;20042;-66
2024/02/16 02:39:15;;;;;;;8.68;5.63;;;;;;;;;;10367319;28;20041;-65
2024/02/16 02:44:16;;;;;;;6.10;5.10;;;;;;;;;;10365283;28;20488;-65
2024/02/16 02:49:16;;;;;;;6.35;4.97;;;;;;;;;;10358578;28;20692;-65
2024/02/16 02:54:17;;;;;;;8.60;5.03;;;;;;;;;;10355193;28;20044;-66
2024/02/16 02:59:17;;;;;;;7.45;4.90;;;;;;;;;;10364206;28;20034;-65
2024/02/16 03:04:18;;;;;;;7.07;5.25;;;;;;;;;;10350426;28;20058;-65
2024/02/16 03:09:19;;;;;;;6.65;4.97;;;;;;;;;;10359375;28;20025;-64
2024/02/16 03:14:19;;;;;;;6.68;4.88;;;;;;;;;;10365304;28;20555;-62
2024/02/16 03:19:20;;;;;;;6.25;5.18;;;;;;;;;;10359787;28;20027;-63
2024/02/16 03:24:20;;;;;;;7.45;5.20;;;;;;;;;;10367052;28;20029;-63
2024/02/16 03:29:21;;;;;;;7.70;5.35;;;;;;;;;;10365916;28;20041;-65
2024/02/16 03:34:21;;;;;;;6.38;4.72;;;;;;;;;;10356898;28;20060;-63
2024/02/16 03:39:22;;;;;;;6.28;4.80;;;;;;;;;;10351891;28;20060;-63
2024/02/16 03:44:23;;;;;;;8.60;4.95;;;;;;;;;;10363470;28;20033;-64
2024/02/16 03:49:27;;;;;;;6.00;4.82;;;;;;;;;;10360760;28;20564;-63
2024/02/16 03:54:28;;;;;;;7.13;5.43;;;;;;;;;;10366227;28;20029;-65
2024/02/16 03:59:29;;;;;;;5.40;4.90;;;;;;;;;;10350416;28;20379;-65
2024/02/16 04:04:29;;;;;;;6.78;5.13;;;;;;;;;;10351003;28;20390;-65
2024/02/16 04:09:30;;;;;;;5.82;4.85;;;;;;;;;;10359683;28;20370;-63
2024/02/16 04:14:31;;;;;;;6.38;4.75;;;;;;;;;;10358261;28;20041;-62
2024/02/16 04:19:31;;;;;;;5.30;4.80;;;;;;;;;;10363953;28;20014;-62
2024/02/16 04:24:32;;;;;;;7.03;5.10;;;;;;;;;;10363096;28;20462;-65
2024/02/16 04:29:32;;;;;;;6.50;5.18;;;;;;;;;;10361271;28;20029;-65
2024/02/16 04:34:33;;;;;;;6.00;4.70;;;;;;;;;;10363056;28;20026;-64
2024/02/16 04:39:33;;;;;;;6.05;4.95;;;;;;;;;;10362577;28;20501;-64
2024/02/16 04:44:39;;;;;;;4.72;4.30;;;;;;;;;;10362167;28;20565;-65
2024/02/16 04:49:39;;;;;;;6.43;5.03;;;;;;;;;;10358316;28;20062;-64
2024/02/16 04:54:40;;;;;;;6.70;5.07;;;;;;;;;;10347938;28;20120;-63
2024/02/16 04:59:41;;;;;;;6.00;4.72;;;;;;;;;;10362784;28;20454;-64
2024/02/16 05:04:41;;;;;;;7.40;4.75;;;;;;;;;;10321521;28;20030;-63
2024/02/16 05:09:43;;;;;;;5.82;4.93;;;;;;;;;;10357499;28;20030;-65
2024/02/16 05:14:46;;;;;;;6.00;4.63;;;;;;;;;;10354301;28;20034;-64
2024/02/16 05:19:47;;;;;;;7.35;5.07;;;;;;;;;;10359694;28;20125;-61
2024/02/16 05:24:48;;;;;;;6.85;4.57;;;;;;;;;;10351813;28;20030;-61
2024/02/16 05:29:50;;;;;;;6.15;4.75;;;;;;;;;;10354281;28;20050;-63
2024/02/16 05:34:50;;;;;;;5.70;4.65;;;;;;;;;;10366588;28;20463;-63
2024/02/16 05:39:56;;;;;;;5.82;4.95;;;;;;;;;;10358023;28;20042;-67
2024/02/16 05:44:58;;;;;;;5.45;4.28;;;;;;;;;;10303406;28;20069;-62
2024/02/16 05:49:58;;;;;;;4.57;4.10;;;;;;;;;;10353427;28;20084;-62
2024/02/16 05:54:59;;;;;;;5.20;4.70;;;;;;;;;;10350115;28;20034;-62
2024/02/16 05:59:59;;;;;;;6.63;4.88;;;;;;;;;;10350737;28;20538;-66
2024/02/16 06:05:02;;;;;;;5.78;4.65;;;;;;;;;;10358398;28;20552;-66
2024/02/16 06:10:07;;;;;;;6.93;5.03;;;;;;;;;;10357978;28;20444;-62
2024/02/16 06:15:08;;;;;;;5.88;5.03;;;;;;;;;;10356240;28;20029;-62
2024/02/16 06:20:11;;;;;;;5.95;4.57;;;;;;;;;;10357390;28;20042;-62
2024/02/16 06:25:11;;;;;;;5.80;4.50;;;;;;;;;;10364494;28;20049;-62
2024/02/16 06:30:12;;;;;;;5.32;4.68;;;;;;;;;;10367818;28;20033;-62
2024/02/16 06:35:14;;;;;;;5.43;4.93;;;;;;;;;;10367589;28;20065;-62
2024/02/16 06:40:15;;;;;;;6.05;4.95;;;;;;;;;;10365833;28;20144;-62
2024/02/16 06:45:15;;;;;;;8.35;5.07;;;;;;;;;;10366964;28;20045;-64
2024/02/16 06:50:16;;;;;;;8.80;4.80;;;;;;;;;;10368215;28;20509;-65
2024/02/16 06:55:16;;;;;;;4.97;4.47;;;;;;;;;;10348136;28;20026;-65
2024/02/16 07:00:19;;;;;;;9.05;5.38;;;;;;;;;;10358665;28;20033;-64
2024/02/16 07:05:20;;;;;;;8.25;5.18;;;;;;;;;;10355067;28;20474;-65
2024/02/16 07:10:21;;;;;;;4.85;4.20;;;;;;;;;;10356726;28;20030;-64
2024/02/16 07:15:22;;;;;;;5.97;5.00;;;;;;;;;;10363231;28;20033;-64
2024/02/16 07:20:22;;;;;;;8.77;5.82;;;;;;;;;;10365245;28;20300;-64
2024/02/16 07:25:23;;;;;;;10.65;6.45;;;;;;;;;;10363696;28;20030;-67
2024/02/16 07:30:23;;;;;;;12.50;6.20;;;;;;;;;;10336894;28;20069;-67
2024/02/16 07:35:24;;;;;;;8.48;7.28;;;;;;;;;;10348346;28;20026;-65
2024/02/16 07:40:24;;;;;;;9.23;7.50;;;;;;;;;;10345551;28;20050;-62
2024/02/16 07:45:25;;;;;;;11.88;7.60;;;;;;;;;;10347971;28;20034;-61
2024/02/16 07:50:26;;;;;;;16.25;7.72;;;;;;;;;;10346036;28;20037;-60
2024/02/16 07:55:27;;;;;;;11.55;7.57;;;;;;;;;;10347171;28;20042;-63
2024/02/16 08:00:28;;;;;;;11.48;8.65;;;;;;;;;;10347901;28;20049;-61
2024/02/16 08:05:29;;;;;;;16.42;8.40;;;;;;;;;;10347984;28;20393;-64
2024/02/16 08:10:29;;;;;;;10.23;8.20;;;;;;;;;;10345488;28;20034;-66
2024/02/16 08:15:31;;;;;;;15.25;9.02;;;;;;;;;;10347376;28;20402;-66
2024/02/16 08:20:31;;;;;;;12.25;8.18;;;;;;;;;;10346514;28;20033;-67
2024/02/16 08:25:33;;;;;;;11.00;8.60;;;;;;;;;;10348749;28;20034;-66
2024/02/16 08:30:33;;;;;;;13.20;8.57;;;;;;;;;;10347081;28;20054;-64
2024/02/16 08:35:34;;;;;;;13.27;8.80;;;;;;;;;;10345924;28;20042;-63
2024/02/16 08:40:34;;;;;;;15.38;8.52;;;;;;;;;;10343971;28;20108;-64
2024/02/16 08:45:35;;;;;;;12.15;8.80;;;;;;;;;;10345229;28;20031;-63
2024/02/16 08:50:36;;;;;;;10.85;8.23;;;;;;;;;;10348159;28;20026;-60
2024/02/16 08:55:36;;;;;;;12.48;8.57;;;;;;;;;;10344854;28;20233;-63
2024/02/16 09:00:37;;;;;;;12.02;7.70;;;;;;;;;;10345578;28;20121;-60
2024/02/16 09:05:37;;;;;;;11.20;7.82;;;;;;;;;;10344449;28;20030;-61
2024/02/16 09:10:38;;;;;;;11.40;8.13;;;;;;;;;;10361765;28;20018;-62
2024/02/16 09:15:38;;;;;;;13.15;7.90;;;;;;;;;;10361163;28;20040;-59
2024/02/16 09:20:39;;;;;;;15.02;8.82;;;;;;;;;;10344008;28;20402;-60
2024/02/16 09:25:40;;;;;;;15.10;9.13;;;;;;;;;;10296923;28;20035;-60
2024/02/16 09:30:41;;;;;;;14.13;8.13;;;;;;;;;;10271135;28;20061;-59
2024/02/16 09:35:42;;;;;;;10.77;8.23;;;;;;;;;;10280692;28;20022;-59
2024/02/16 09:40:44;;;;;;;15.95;8.75;;;;;;;;;;10281987;28;20070;-59
2024/02/16 09:45:44;;;;;;;8.95;7.57;;;;;;;;;;10281400;28;20252;-60
2024/02/16 09:50:45;;;;;;;9.85;7.40;;;;;;;;;;10286356;28;20065;-59
2024/02/16 09:55:49;;;;;;;12.20;6.85;;;;;;;;;;10277542;28;20087;-59
2024/02/16 10:00:54;;;;;;;7.82;6.95;;;;;;;;;;10289436;28;20038;-57
2024/02/16 10:06:09;;;;;;;10.30;7.30;;;;;;;;;;10277656;28;20089;-58
2024/02/16 10:11:10;;;;;;;9.52;6.65;;;;;;;;;;10265350;28;20057;-58
2024/02/16 10:16:11;;;;;;;9.48;7.00;;;;;;;;;;10289054;28;20034;-59
2024/02/16 10:21:12;;;;;;;11.88;7.07;;;;;;;;;;10287572;28;20022;-60
2024/02/16 10:26:12;;;;;;;9.60;7.07;;;;;;;;;;10276309;28;20041;-60
2024/02/16 10:31:14;;;;;;;7.75;6.43;;;;;;;;;;10275097;28;20506;-59
2024/02/16 10:36:15;;;;;;;7.57;6.68;;;;;;;;;;10270306;28;20055;-59
2024/02/16 10:41:18;;;;;;;7.70;6.55;;;;;;;;;;10252275;28;20057;-58
2024/02/16 10:46:19;;;;;;;8.80;6.60;;;;;;;;;;10287651;28;20120;-59
2024/02/16 10:51:47;;;;;;;8.35;6.85;;;;;;;;;;10272272;28;20045;-59
2024/02/16 10:56:48;;;;;;;11.47;7.33;;;;;;;;;;10265742;28;20034;-58
2024/02/16 11:02:00;;;;;;;8.50;6.82;;;;;;;;;;10281378;28;20039;-58
2024/02/16 11:07:01;;;;;;;9.88;6.78;;;;;;;;;;10279022;28;20030;-59
2024/02/16 11:12:04;;;;;;;7.95;6.60;;;;;;;;;;10274052;28;20035;-58
2024/02/16 11:17:10;;;;;;;9.32;6.95;;;;;;;;;;10286262;28;20077;-58
2024/02/16 11:22:14;;;;;;;9.02;6.78;;;;;;;;;;10274456;28;20206;-59
2024/02/16 11:27:18;;;;;;;6.93;5.95;;;;;;;;;;10262027;28;20027;-58
2024/02/16 11:32:20;;;;;;;9.65;6.20;;;;;;;;;;10274260;28;20027;-58
2024/02/16 11:37:21;;;;;;;6.97;5.90;;;;;;;;;;10289692;28;20053;-60
2024/02/16 11:42:22;;;;;;;7.93;6.20;;;;;;;;;;10295024;28;20493;-59
2024/02/16 11:47:25;;;;;;;6.78;6.13;;;;;;;;;;10296757;28;20038;-60
2024/02/16 11:52:26;;;;;;;7.65;6.32;;;;;;;;;;10296559;28;20023;-59
2024/02/16 11:57:28;;;;;;;9.18;6.15;;;;;;;;;;10295766;28;20491;-59
2024/02/16 12:02:30;;;;;;;7.85;6.07;;;;;;;;;;10295564;28;20031;-58
2024/02/16 12:07:33;;;;;;;6.40;5.78;;;;;;;;;;10295391;28;20089;-59
2024/02/16 12:12:35;;;;;;;9.75;6.53;;;;;;;;;;10295724;28;20035;-58
2024/02/16 12:17:36;;;;;;;7.75;6.28;;;;;;;;;;10294918;28;20077;-59
2024/02/16 12:22:38;;;;;;;7.45;6.40;;;;;;;;;;10294797;28;20121;-61
2024/02/16 12:27:39;;;;;;;7.53;5.50;;;;;;;;;;10295167;28;20057;-60
2024/02/16 12:32:41;;;;;;;7.93;6.45;;;;;;;;;;10295062;28;20027;-60
2024/02/16 12:37:43;;;;;;;8.40;6.22;;;;;;;;;;10294032;28;20051;-59
2024/02/16 12:42:47;;;;;;;7.45;6.28;;;;;;;;;;10294128;28;20026;-60
2024/02/16 12:47:50;;;;;;;6.43;5.72;;;;;;;;;;10294580;28;20121;-62
2024/02/16 12:52:54;;;;;;;7.78;6.38;;;;;;;;;;10293892;28;20050;-62
2024/02/16 12:57:56;;;;;;;8.60;6.10;;;;;;;;;;10293645;28;20030;-60
2024/02/16 13:02:58;;;;;;;8.20;6.00;;;;;;;;;;10294211;28;20034;-61
2024/02/16 13:08:00;;;;;;;8.00;6.43;;;;;;;;;;10294195;28;20066;-62
2024/02/16 13:13:02;;;;;;;9.70;6.22;;;;;;;;;;10293540;28;20376;-58
2024/02/16 13:18:04;;;;;;;6.40;5.43;;;;;;;;;;10293376;28;20027;-57
2024/02/16 13:23:06;;;;;;;7.68;5.45;;;;;;;;;;10294846;28;20467;-58
2024/02/16 13:28:07;;;;;;;8.82;5.45;;;;;;;;;;10301410;28;20129;-57
2024/02/16 13:33:09;;;;;;;6.75;5.60;;;;;;;;;;10301832;28;20035;-58
2024/02/16 13:38:11;;;;;;;9.43;6.50;;;;;;;;;;10301128;28;20098;-60
2024/02/16 13:43:12;;;;;;;7.97;5.63;;;;;;;;;;10300829;28;20043;-61
2024/02/16 13:48:14;;;;;;;7.68;6.03;;;;;;;;;;10301356;28;20088;-59
2024/02/16 13:53:17;;;;;;;6.30;5.47;;;;;;;;;;10301139;28;20073;-61
2024/02/16 13:58:18;;;;;;;7.28;6.40;;;;;;;;;;10300279;28;20026;-60
2024/02/16 14:03:20;;;;;;;6.93;5.57;;;;;;;;;;10301242;28;20459;-59
2024/02/16 14:08:22;;;;;;;6.88;5.70;;;;;;;;;;10300439;28;20031;-58
2024/02/16 14:13:24;;;;;;;5.80;5.13;;;;;;;;;;10300418;28;20034;-58
2024/02/16 14:18:26;;;;;;;7.97;5.25;;;;;;;;;;10299510;28;20121;-59
2024/02/16 14:23:29;;;;;;;10.02;6.28;;;;;;;;;;10299915;28;20066;-58
2024/02/16 14:28:30;;;;;;;7.03;6.03;;;;;;;;;;10290882;28;20035;-58
2024/02/16 14:33:30;;;;;;;7.90;6.15;;;;;;;;;;10279534;28;20034;-59
2024/02/16 14:38:31;;;;;;;8.13;6.35;;;;;;;;;;10267727;28;20046;-59
2024/02/16 14:43:35;;;;;;;8.48;5.97;;;;;;;;;;10265155;28;20038;-58
2024/02/16 14:48:36;;;;;;;7.47;5.80;;;;;;;;;;10281207;28;20116;-58
2024/02/16 14:53:37;;;;;;;8.85;6.40;;;;;;;;;;10278372;28;20038;-60
2024/02/16 14:58:37;;;;;;;8.38;6.13;;;;;;;;;;10246500;28;20034;-60
2024/02/16 15:03:38;;;;;;;9.07;6.05;;;;;;;;;;10285609;28;20041;-60
2024/02/16 15:08:38;;;;;;;7.97;5.90;;;;;;;;;;10285279;28;20085;-62
2024/02/16 15:13:39;;;;;;;7.25;5.88;;;;;;;;;;10285243;28;20035;-60
2024/02/16 15:18:39;;;;;;;9.18;6.15;;;;;;;;;;10286101;28;20027;-62
2024/02/16 15:23:40;;;;;;;7.20;5.60;;;;;;;;;;10276068;28;20035;-62
2024/02/16 15:28:41;;;;;;;9.60;6.05;;;;;;;;;;10279101;28;20027;-60
2024/02/16 15:33:41;;;;;;;6.80;5.65;;;;;;;;;;10285469;28;20078;-60
2024/02/16 15:38:42;;;;;;;7.22;5.90;;;;;;;;;;10285306;28;20129;-59
2024/02/16 15:43:43;;;;;;;6.80;5.95;;;;;;;;;;10274813;28;20450;-61
2024/02/16 15:48:46;;;;;;;8.48;5.70;;;;;;;;;;10281900;28;20103;-61
2024/02/16 15:53:46;;;;;;;5.68;4.97;;;;;;;;;;10283171;28;20037;-59
2024/02/16 15:58:47;;;;;;;8.85;6.13;;;;;;;;;;10274937;28;20039;-58
2024/02/16 16:03:49;;;;;;;8.68;6.28;;;;;;;;;;10272529;28;20490;-60
2024/02/16 16:08:51;;;;;;;7.90;6.25;;;;;;;;;;10281968;28;20038;-59
2024/02/16 16:13:52;;;;;;;7.78;6.40;;;;;;;;;;10283554;28;20664;-59
2024/02/16 16:18:55;;;;;;;7.82;6.25;;;;;;;;;;10280265;28;20085;-58
2024/02/16 16:23:55;;;;;;;6.68;5.60;;;;;;;;;;10275678;28;20061;-58
2024/02/16 16:28:56;;;;;;;6.45;5.85;;;;;;;;;;10273626;28;20040;-59
2024/02/16 16:33:57;;;;;;;7.97;5.72;;;;;;;;;;10265358;28;20035;-58
2024/02/16 16:38:57;;;;;;;10.27;6.03;;;;;;;;;;10274904;28;20039;-58
2024/02/16 16:43:58;;;;;;;6.97;6.28;;;;;;;;;;10275801;28;20042;-60
2024/02/16 16:48:59;;;;;;;9.40;6.10;;;;;;;;;;10279243;28;20574;-58
2024/02/16 16:53:59;;;;;;;6.78;6.05;;;;;;;;;;10280689;28;20023;-59
2024/02/16 16:59:01;;;;;;;8.18;6.25;;;;;;;;;;10281175;28;20045;-60
2024/02/16 17:04:02;;;;;;;8.82;5.75;;;;;;;;;;10269439;28;20038;-60
2024/02/16 17:09:02;;;;;;;8.75;6.10;;;;;;;;;;10271055;28;20623;-60
2024/02/16 17:14:03;;;;;;;7.15;6.15;;;;;;;;;;10278556;28;20102;-59
2024/02/16 17:19:03;;;;;;;10.10;6.80;;;;;;;;;;10281517;28;20027;-59
2024/02/16 17:24:05;;;;;;;9.55;6.65;;;;;;;;;;10278457;28;20050;-60
2024/02/16 17:29:05;;;;;;;9.02;6.60;;;;;;;;;;10280412;28;20429;-59
2024/02/16 17:34:08;;;;;;;14.88;7.40;;;;;;;;;;10277733;28;20030;-59
2024/02/16 17:39:08;;;;;;;7.65;6.80;;;;;;;;;;10276460;28;20134;-58
2024/02/16 17:44:09;;;;;;;13.95;7.60;;;;;;;;;;10278677;28;20093;-59
2024/02/16 17:49:11;;;;;;;9.10;7.22;;;;;;;;;;10282183;28;20708;-59
2024/02/16 17:54:11;;;;;;;20.38;7.75;;;;;;;;;;10263932;28;20031;-62
2024/02/16 17:59:12;;;;;;;9.02;7.00;;;;;;;;;;10279678;28;20023;-58
2024/02/16 18:04:13;;;;;;;10.48;7.88;;;;;;;;;;10282399;28;20034;-58
2024/02/16 18:09:13;;;;;;;12.65;8.18;;;;;;;;;;10280193;28;20030;-61
2024/02/16 18:14:14;;;;;;;14.80;7.95;;;;;;;;;;10282321;28;20607;-61
2024/02/16 18:19:15;;;;;;;13.30;7.63;;;;;;;;;;10284124;28;20035;-61
2024/02/16 18:24:16;;;;;;;14.02;7.72;;;;;;;;;;10286533;28;20035;-61
2024/02/16 18:29:16;;;;;;;10.70;7.40;;;;;;;;;;10274644;28;20505;-61
2024/02/16 18:34:17;;;;;;;7.88;7.00;;;;;;;;;;10286470;28;20530;-61
2024/02/16 18:39:23;;;;;;;9.73;7.05;;;;;;;;;;10275639;28;20093;-61
2024/02/16 18:44:24;;;;;;;10.82;7.30;;;;;;;;;;10288184;28;20046;-62
2024/02/16 18:49:24;;;;;;;9.30;7.05;;;;;;;;;;10283680;28;20046;-61
2024/02/16 18:54:25;;;;;;;9.98;7.38;;;;;;;;;;10275569;28;20067;-61
2024/02/16 18:59:26;;;;;;;9.20;6.90;;;;;;;;;;10287014;28;20070;-64
2024/02/16 19:04:30;;;;;;;7.68;5.90;;;;;;;;;;10270209;28;20047;-63
2024/02/16 19:09:31;;;;;;;8.10;6.28;;;;;;;;;;10287260;28;20037;-62
2024/02/16 19:14:32;;;;;;;9.15;6.40;;;;;;;;;;10272856;28;20114;-62
2024/02/16 19:19:32;;;;;;;8.52;6.38;;;;;;;;;;10269845;28;20375;-63
2024/02/16 19:24:33;;;;;;;7.88;6.43;;;;;;;;;;10278884;28;20382;-63
2024/02/16 19:29:33;;;;;;;8.40;6.07;;;;;;;;;;10281184;28;20501;-63
2024/02/16 19:34:35;;;;;;;7.03;5.65;;;;;;;;;;10269433;28;20031;-63
2024/02/16 19:39:36;;;;;;;8.35;6.57;;;;;;;;;;10271330;28;20047;-63
2024/02/16 19:44:37;;;;;;;7.50;6.10;;;;;;;;;;10275908;28;20381;-63
2024/02/16 19:49:38;;;;;;;10.50;6.60;;;;;;;;;;10272748;28;20117;-63
2024/02/16 19:54:38;;;;;;;8.63;6.00;;;;;;;;;;10283203;28;20035;-62
2024/02/16 19:59:39;;;;;;;6.97;5.65;;;;;;;;;;10268484;28;20024;-63
2024/02/16 20:04:40;;;;;;;8.30;6.20;;;;;;;;;;10271466;28;20035;-64
2024/02/16 20:09:41;;;;;;;9.07;6.03;;;;;;;;;;10282872;28;20529;-62
2024/02/16 20:14:41;;;;;;;7.65;6.03;;;;;;;;;;10283312;28;20030;-63
2024/02/16 20:19:42;;;;;;;7.57;5.90;;;;;;;;;;10278695;28;20037;-64
2024/02/16 20:24:45;;;;;;;15.93;5.93;;;;;;;;;;10275819;28;20034;-61
2024/02/16 20:29:45;;;;;;;21.08;6.05;;;;;;;;;;10270441;28;20030;-63
2024/02/16 20:34:46;;;;;;;8.05;5.70;;;;;;;;;;10280986;28;20026;-63
2024/02/16 20:39:46;;;;;;;9.18;5.80;;;;;;;;;;10274440;28;20443;-63
2024/02/16 20:44:47;;;;;;;9.40;5.82;;;;;;;;;;10279992;28;20470;-60
2024/02/16 20:49:47;;;;;;;7.18;5.90;;;;;;;;;;10275054;28;20038;-60
2024/02/16 20:54:48;;;;;;;11.15;6.03;;;;;;;;;;10278759;28;20045;-60
2024/02/16 20:59:49;;;;;;;8.85;5.82;;;;;;;;;;10251604;28;20046;-60
2024/02/16 21:04:49;;;;;;;7.38;5.80;;;;;;;;;;10259231;28;20030;-62
2024/02/16 21:09:50;;;;;;;6.57;5.78;;;;;;;;;;10253974;28;22504;-63
2024/02/16 21:14:50;;;;;;;9.70;5.80;;;;;;;;;;10254620;28;20027;-63
2024/02/16 21:19:51;;;;;;;6.55;5.57;;;;;;;;;;10252879;28;20389;-63
2024/02/16 21:24:52;;;;;;;5.88;5.28;;;;;;;;;;10244610;28;20184;-63
2024/02/16 21:29:53;;;;;;;7.25;5.75;;;;;;;;;;10252177;28;20027;-63
2024/02/16 21:34:54;;;;;;;7.90;5.72;;;;;;;;;;10247117;28;20031;-63
2024/02/16 21:39:56;;;;;;;7.00;5.68;;;;;;;;;;10247156;28;20172;-63
2024/02/16 21:44:57;;;;;;;7.75;5.28;;;;;;;;;;10258797;28;20378;-63
2024/02/16 21:49:58;;;;;;;8.27;5.43;;;;;;;;;;10263551;28;20030;-63
2024/02/16 21:54:58;;;;;;;7.65;5.30;;;;;;;;;;10259956;28;20042;-62
2024/02/16 21:59:59;;;;;;;7.85;5.30;;;;;;;;;;10258420;28;20038;-63
2024/02/16 22:04:59;;;;;;;7.00;6.03;;;;;;;;;;10255424;28;20023;-63
2024/02/16 22:10:00;;;;;;;7.13;5.18;;;;;;;;;;10267662;28;20118;-61
2024/02/16 22:15:01;;;;;;;6.30;5.25;;;;;;;;;;10283254;28;20437;-64
2024/02/16 22:20:01;;;;;;;7.57;5.80;;;;;;;;;;10281843;28;20034;-63
2024/02/16 22:25:03;;;;;;;6.13;5.53;;;;;;;;;;10283426;28;20042;-63
2024/02/16 22:30:04;;;;;;;6.60;5.22;;;;;;;;;;10287964;28;20026;-60
2024/02/16 22:35:05;;;;;;;7.15;5.43;;;;;;;;;;10288197;28;20039;-60
2024/02/16 22:40:07;;;;;;;7.97;5.28;;;;;;;;;;10273272;28;20059;-60
2024/02/16 22:45:09;;;;;;;6.65;5.32;;;;;;;;;;10275209;28;20126;-60
2024/02/16 22:50:09;;;;;;;6.10;5.50;;;;;;;;;;10286367;28;20074;-60
2024/02/16 22:55:10;;;;;;;5.70;4.68;;;;;;;;;;10257062;28;20031;-59
2024/02/16 23:00:46;;;;;;;7.10;5.70;;;;;;;;;;10264165;28;20340;-60
2024/02/16 23:05:39;;;;;;;6.33;5.67;;;;;;;;;;10283035;28;20108;-60
2024/02/16 23:10:41;;;;;;;7.57;4.88;;;;;;;;;;10269749;28;20561;-59
2024/02/16 23:15:42;;;;;;;8.38;5.75;;;;;;;;;;10284149;28;20073;-60
2024/02/16 23:20:43;;;;;;;6.82;5.82;;;;;;;;;;10278132;28;20474;-59
2024/02/16 23:25:44;;;;;;;5.68;5.10;;;;;;;;;;10279982;28;20478;-60
2024/02/16 23:30:45;;;;;;;11.55;5.32;;;;;;;;;;10286175;28;20470;-59
2024/02/16 23:35:46;;;;;;;6.03;5.32;;;;;;;;;;10269271;28;20042;-62
2024/02/16 23:40:46;;;;;;;7.90;5.68;;;;;;;;;;10282887;28;20034;-59
2024/02/16 23:45:47;;;;;;;7.03;5.75;;;;;;;;;;10271382;28;20035;-60
2024/02/16 23:50:48;;;;;;;7.20;6.10;;;;;;;;;;10270050;28;20042;-60
2024/02/16 23:55:48;;;;;;;7.80;5.38;;;;;;;;;;10274248;28;20035;-62
